Time;durP1;ratioP1;P1;durP2;ratioP2;P2;SDS_P1;SDS_P2;PMS_P1;PMS_P2;Temp;Humidity;BMP_temperature;BMP_pressure;BME280_temperature;BME280_humidity;BME280_pressure;Samples;Min_cycle;Max_cycle;Signal;HPM_P1;HPM_P2
2022/07/04 00:02:24;;;;;;;0.85;0.30;;;14.80;99.90;;;;;;20736890;28;20046;-81
2022/07/04 00:12:26;;;;;;;1.23;0.40;;;14.70;99.90;;;;;;20721985;28;20115;-80
2022/07/04 00:22:28;;;;;;;2.17;0.40;;;14.70;99.90;;;;;;20716615;28;20041;-80
2022/07/04 00:32:29;;;;;;;1.48;0.50;;;14.60;99.90;;;;;;20731897;28;20053;-80
2022/07/04 00:42:30;;;;;;;2.00;0.90;;;14.60;99.90;;;;;;20727541;28;20405;-80
2022/07/04 00:52:31;;;;;;;1.25;0.50;;;14.50;99.90;;;;;;20742110;28;20499;-81
2022/07/04 01:02:32;;;;;;;2.72;0.65;;;14.50;99.90;;;;;;20707058;28;20161;-81
2022/07/04 01:12:35;;;;;;;1.95;0.60;;;14.40;99.90;;;;;;20723505;28;20042;-81
2022/07/04 01:22:36;;;;;;;1.90;0.70;;;14.40;99.90;;;;;;20723673;28;20313;-82
2022/07/04 01:32:38;;;;;;;2.50;1.38;;;14.40;99.90;;;;;;20711272;28;20046;-81
2022/07/04 01:42:40;;;;;;;1.77;0.60;;;14.40;99.90;;;;;;20713551;28;20054;-81
2022/07/04 01:52:42;;;;;;;2.33;0.90;;;14.30;99.90;;;;;;20718968;28;20042;-82
2022/07/04 02:02:43;;;;;;;1.90;1.10;;;14.30;99.90;;;;;;20742688;28;20437;-82
2022/07/04 02:13:03;;;;;;;4.40;1.48;;;14.30;99.90;;;;;;20738633;28;20046;-81
2022/07/04 02:23:05;;;;;;;2.28;0.90;;;14.30;99.90;;;;;;20718240;28;20048;-83
2022/07/04 02:33:06;;;;;;;2.38;1.45;;;14.20;99.90;;;;;;20703253;28;20041;-84
2022/07/04 02:43:07;;;;;;;1.58;0.77;;;14.20;99.90;;;;;;20703418;28;20504;-83
2022/07/04 02:53:08;;;;;;;4.03;2.22;;;14.20;99.90;;;;;;20700993;28;20046;-83
2022/07/04 03:03:10;;;;;;;1.83;0.70;;;14.20;99.90;;;;;;20712539;28;20045;-84
2022/07/04 03:13:11;;;;;;;2.53;0.93;;;14.20;99.90;;;;;;20718574;28;20382;-84
2022/07/04 03:23:13;;;;;;;1.92;0.77;;;14.20;99.90;;;;;;20702931;28;20037;-84
2022/07/04 03:33:15;;;;;;;1.85;0.90;;;14.10;99.90;;;;;;20705119;28;20352;-83
2022/07/04 03:43:20;;;;;;;3.90;0.95;;;14.10;99.90;;;;;;20742890;28;20053;-84
2022/07/04 03:53:21;;;;;;;2.20;0.82;;;14.20;99.90;;;;;;20741065;28;20049;-84
2022/07/04 04:13:42;;;;;;;1.30;0.70;;;14.30;99.90;;;;;;20734796;28;20135;-83
2022/07/04 04:23:43;;;;;;;3.80;0.85;;;14.40;99.90;;;;;;20728110;28;20042;-82
2022/07/04 04:33:44;;;;;;;2.63;0.90;;;14.50;99.90;;;;;;20740586;28;20500;-82
2022/07/04 04:43:45;;;;;;;2.15;0.80;;;14.60;99.90;;;;;;20731494;28;20057;-81
2022/07/04 04:53:46;;;;;;;4.82;1.55;;;14.70;99.90;;;;;;20733603;28;20029;-81
2022/07/04 05:03:47;;;;;;;2.55;1.27;;;14.90;99.90;;;;;;20717514;28;20037;-82
2022/07/04 05:13:48;;;;;;;2.65;1.35;;;15.10;99.90;;;;;;20728923;28;20037;-82
2022/07/04 05:23:49;;;;;;;3.88;1.73;;;15.30;99.90;;;;;;20741192;28;20049;-81
2022/07/04 05:33:54;;;;;;;1.83;1.23;;;15.50;99.90;;;;;;20737280;28;20034;-82
2022/07/04 05:43:55;;;;;;;1.55;0.60;;;15.50;99.90;;;;;;20732658;28;20648;-81
2022/07/04 05:53:56;;;;;;;4.18;2.83;;;15.50;99.90;;;;;;20748614;28;20037;-82
2022/07/04 06:03:58;;;;;;;2.10;0.68;;;15.70;99.90;;;;;;20731765;28;20053;-81
2022/07/04 06:13:59;;;;;;;4.75;0.80;;;15.70;99.90;;;;;;20735825;28;20242;-81
2022/07/04 06:24:01;;;;;;;3.47;0.90;;;15.80;99.90;;;;;;20744006;28;20049;-81
2022/07/04 06:44:38;;;;;;;2.28;0.77;;;16.60;99.90;;;;;;20567561;28;20065;-81
2022/07/04 06:54:39;;;;;;;2.28;0.90;;;16.90;99.90;;;;;;20669221;28;20039;-81
2022/07/04 07:04:41;;;;;;;2.55;0.93;;;17.40;99.90;;;;;;20740568;28;20048;-80
2022/07/04 07:14:48;;;;;;;;;;;17.80;99.90;;;;;;20739199;28;20559;-81
2022/07/04 07:24:49;;;;;;;1.40;0.45;;;18.00;99.90;;;;;;20758854;28;19936;-81
2022/07/04 07:34:50;;;;;;;5.18;0.43;;;18.30;99.90;;;;;;20742815;28;20072;-80
2022/07/04 07:44:51;;;;;;;0.93;0.38;;;18.30;99.90;;;;;;20743974;28;20092;-81
2022/07/04 07:54:52;;;;;;;2.17;0.88;;;18.60;99.90;;;;;;20754154;28;20760;-81
2022/07/04 08:04:54;;;;;;;0.52;0.30;;;18.90;99.90;;;;;;20729072;28;20049;-81
2022/07/04 08:14:55;;;;;;;0.90;0.30;;;19.00;99.90;;;;;;20737525;28;20038;-80
2022/07/04 08:24:56;;;;;;;1.60;0.38;;;19.00;99.90;;;;;;20723306;28;20524;-81
2022/07/04 08:34:57;;;;;;;2.13;0.73;;;19.40;99.90;;;;;;20733556;28;20057;-80
2022/07/04 08:44:59;;;;;;;0.70;0.30;;;19.70;99.90;;;;;;20724280;28;20046;-80
2022/07/04 09:05:26;;;;;;;0.77;0.35;;;19.90;99.90;;;;;;20824848;28;20053;-80
2022/07/04 09:15:27;;;;;;;0.60;0.10;;;20.20;99.90;;;;;;20813653;28;20044;-81
2022/07/04 09:25:28;;;;;;;0.60;0.30;;;20.60;99.90;;;;;;20830189;28;20049;-80
2022/07/04 09:35:31;;;;;;;1.33;0.55;;;20.50;99.90;;;;;;20842295;28;20052;-80
2022/07/04 09:45:32;;;;;;;0.80;0.30;;;20.50;99.90;;;;;;20839366;28;20468;-80
2022/07/04 09:55:35;;;;;;;0.60;0.32;;;20.70;99.90;;;;;;20842735;28;20049;-80
2022/07/04 10:05:36;;;;;;;0.28;0.10;;;21.00;99.90;;;;;;20850031;28;20420;-80
2022/07/04 10:15:40;;;;;;;0.98;0.32;;;20.70;99.90;;;;;;20822845;28;20155;-80
2022/07/04 10:25:44;;;;;;;0.95;0.30;;;21.00;99.90;;;;;;20843197;28;20041;-80
2022/07/04 10:35:53;;;;;;;0.68;0.47;;;21.50;99.90;;;;;;20830713;28;20125;-80
2022/07/04 10:45:54;;;;;;;0.73;0.35;;;21.90;99.90;;;;;;20850310;28;20463;-80
2022/07/04 10:56:14;;;;;;;0.65;0.28;;;22.20;99.90;;;;;;20828430;28;20036;-80
2022/07/04 11:06:35;;;;;;;0.38;0.10;;;22.40;99.90;;;;;;20808591;28;20044;-80
2022/07/04 11:16:53;;;;;;;0.45;0.17;;;22.50;99.90;;;;;;20810328;28;20376;-80
2022/07/04 11:26:54;;;;;;;;;;;22.50;99.90;;;;;;20836174;28;20374;-80
2022/07/04 11:36:55;;;;;;;0.70;0.20;;;22.80;99.90;;;;;;20821015;28;19925;-81
2022/07/04 11:47:06;;;;;;;0.40;0.20;;;22.90;99.90;;;;;;20830474;28;20057;-80
2022/07/04 11:57:12;;;;;;;0.40;0.20;;;23.20;99.90;;;;;;20824665;28;20144;-80
2022/07/04 12:07:15;;;;;;;0.38;0.10;;;23.40;99.90;;;;;;20822022;28;20047;-81
2022/07/04 12:17:19;;;;;;;1.55;0.82;;;23.80;99.90;;;;;;20831449;28;20040;-80
2022/07/04 12:27:20;;;;;;;0.55;0.20;;;23.70;99.90;;;;;;20821038;28;20040;-80
2022/07/04 12:37:21;;;;;;;0.77;0.20;;;24.00;99.30;;;;;;20809179;28;20045;-80
2022/07/04 12:47:22;;;;;;;1.13;0.35;;;24.00;99.90;;;;;;20824581;28;20416;-80
2022/07/04 12:57:25;;;;;;;0.30;0.10;;;23.90;99.90;;;;;;20810600;28;20045;-80
2022/07/04 13:07:28;;;;;;;0.80;0.40;;;24.00;99.90;;;;;;20829512;28;20128;-80
2022/07/04 13:17:29;;;;;;;1.45;0.30;;;24.00;99.90;;;;;;20824393;28;21019;-80
2022/07/04 13:27:30;;;;;;;0.98;0.60;;;23.80;99.90;;;;;;20806887;28;20075;-80
2022/07/04 13:37:31;;;;;;;0.55;0.20;;;24.10;99.90;;;;;;20817201;28;20048;-80
2022/07/04 13:47:32;;;;;;;0.80;0.30;;;24.10;99.90;;;;;;20823266;28;20489;-80
2022/07/04 13:57:34;;;;;;;0.32;0.15;;;24.00;99.90;;;;;;20819953;28;20416;-79
2022/07/04 14:07:35;;;;;;;0.52;0.20;;;23.80;99.90;;;;;;20834672;28;20041;-80
2022/07/04 14:17:37;;;;;;;0.47;0.10;;;24.00;99.90;;;;;;20817802;28;20171;-80
2022/07/04 14:27:38;;;;;;;1.55;0.13;;;23.80;99.90;;;;;;20811886;28;20334;-80
2022/07/04 14:37:40;;;;;;;0.43;0.20;;;23.60;99.90;;;;;;20839903;28;20037;-80
2022/07/04 14:47:41;;;;;;;1.05;0.30;;;23.60;99.90;;;;;;20807806;28;20488;-80
2022/07/04 14:57:42;;;;;;;0.80;0.30;;;23.50;99.90;;;;;;20818122;28;20079;-81
2022/07/04 15:07:43;;;;;;;1.63;0.60;;;23.50;99.90;;;;;;20812554;28;20045;-81
2022/07/04 15:17:47;;;;;;;1.52;0.68;;;23.50;99.90;;;;;;20808621;28;20052;-81
2022/07/04 15:27:51;;;;;;;0.40;0.15;;;23.30;99.90;;;;;;20781689;28;20029;-85
2022/07/04 15:37:53;;;;;;;0.70;0.20;;;23.10;99.90;;;;;;20786627;28;20342;-82
2022/07/04 15:47:54;;;;;;;1.70;0.75;;;23.00;99.90;;;;;;20812331;28;20049;-83
2022/07/04 15:57:55;;;;;;;1.58;0.95;;;22.90;99.90;;;;;;20793160;28;20033;-81
2022/07/04 16:07:56;;;;;;;0.40;0.20;;;22.60;99.90;;;;;;20827866;28;20049;-81
2022/07/04 16:17:58;;;;;;;0.88;0.20;;;22.60;99.90;;;;;;20823494;28;20037;-81
2022/07/04 16:27:59;;;;;;;0.52;0.30;;;22.60;99.90;;;;;;20829854;28;20045;-80
2022/07/04 16:38:02;;;;;;;0.68;0.40;;;22.20;99.90;;;;;;20836274;28;20052;-80
2022/07/04 16:48:06;;;;;;;0.73;0.30;;;22.00;99.90;;;;;;20826121;28;20060;-81
2022/07/04 16:58:07;;;;;;;1.00;0.30;;;21.90;99.90;;;;;;20828826;28;20033;-79
2022/07/04 17:08:08;;;;;;;17.58;1.58;;;21.50;99.90;;;;;;20820188;28;20485;-78
2022/07/04 17:18:09;;;;;;;0.47;0.10;;;21.40;99.90;;;;;;20825462;28;20047;-79
2022/07/04 17:28:10;;;;;;;0.73;0.10;;;21.30;99.90;;;;;;20832039;28;20346;-79
2022/07/04 17:38:12;;;;;;;0.57;0.20;;;21.20;99.90;;;;;;20794742;28;20044;-78
2022/07/04 17:48:13;;;;;;;0.73;0.20;;;21.10;99.90;;;;;;20814800;28;20142;-79
2022/07/04 17:58:15;;;;;;;1.25;0.50;;;21.10;99.90;;;;;;20837235;28;20053;-79
2022/07/04 18:08:16;;;;;;;1.38;0.68;;;21.00;99.90;;;;;;20812998;28;20052;-79
2022/07/04 18:18:17;;;;;;;0.43;0.30;;;20.80;99.90;;;;;;20804180;28;20099;-79
2022/07/04 18:28:20;;;;;;;0.70;0.20;;;20.50;99.90;;;;;;20871310;28;22410;-79
2022/07/04 18:38:21;;;;;;;0.88;0.40;;;20.10;99.90;;;;;;20824863;28;20044;-79
2022/07/04 18:48:23;;;;;;;0.47;0.13;;;19.90;99.90;;;;;;20813052;28;20052;-79
2022/07/04 18:58:25;;;;;;;0.68;0.40;;;19.80;99.90;;;;;;20795843;28;20488;-79
2022/07/04 19:08:26;;;;;;;1.90;0.40;;;19.70;99.90;;;;;;20793152;28;20055;-79
2022/07/04 19:18:27;;;;;;;0.35;0.10;;;19.40;99.90;;;;;;20825987;28;20497;-79
2022/07/04 19:28:28;;;;;;;4.45;0.88;;;19.30;99.90;;;;;;20845904;28;20138;-79
2022/07/04 19:38:29;;;;;;;2.05;0.45;;;19.00;99.90;;;;;;20891750;28;20044;-79
2022/07/04 19:48:30;;;;;;;0.80;0.35;;;18.80;99.90;;;;;;20910180;28;20059;-80
2022/07/04 19:58:33;;;;;;;0.38;0.20;;;18.70;99.90;;;;;;20907421;28;20487;-79
2022/07/04 20:08:34;;;;;;;1.35;0.22;;;18.50;99.90;;;;;;20883854;28;20063;-79
2022/07/04 20:18:35;;;;;;;1.48;0.77;;;18.30;99.90;;;;;;20901537;28;20232;-81
2022/07/04 20:28:36;;;;;;;1.58;0.40;;;18.30;99.90;;;;;;20884355;28;20044;-80
2022/07/04 20:38:37;;;;;;;1.13;0.77;;;17.90;99.90;;;;;;20890020;28;20051;-81
2022/07/04 20:48:42;;;;;;;1.27;0.55;;;17.70;99.90;;;;;;20874810;28;20032;-81
2022/07/04 20:58:43;;;;;;;0.73;0.30;;;17.70;99.90;;;;;;20873008;28;20681;-81
2022/07/04 21:08:44;;;;;;;1.00;0.40;;;17.50;99.90;;;;;;20870337;28;20057;-81
2022/07/04 21:18:45;;;;;;;0.90;0.40;;;17.60;99.90;;;;;;20868588;28;20044;-82
2022/07/04 21:28:46;;;;;;;1.05;0.50;;;17.40;99.90;;;;;;20872032;28;20396;-81
2022/07/04 21:38:47;;;;;;;1.60;0.52;;;17.20;99.90;;;;;;20881663;28;20052;-81
2022/07/04 21:48:48;;;;;;;2.47;0.60;;;17.00;99.90;;;;;;20886939;28;20593;-82
2022/07/04 21:58:50;;;;;;;2.03;0.60;;;16.80;99.90;;;;;;20867418;28;20500;-82
2022/07/04 22:08:51;;;;;;;6.10;1.25;;;16.80;99.90;;;;;;20893847;28;22309;-81
2022/07/04 22:18:52;;;;;;;1.17;0.52;;;16.70;99.90;;;;;;20861788;28;20056;-82
2022/07/04 22:28:53;;;;;;;0.55;0.30;;;16.60;99.90;;;;;;20863871;28;20044;-82
2022/07/04 22:38:54;;;;;;;1.38;0.50;;;16.60;99.90;;;;;;20881792;28;20052;-80
2022/07/04 22:48:55;;;;;;;0.70;0.32;;;16.50;99.90;;;;;;20856551;28;20508;-82
2022/07/04 22:58:57;;;;;;;0.95;0.50;;;16.20;99.90;;;;;;20880524;28;20041;-82
2022/07/04 23:08:58;;;;;;;1.40;0.65;;;16.10;99.90;;;;;;20870650;28;20051;-84
2022/07/04 23:18:59;;;;;;;1.63;0.68;;;16.20;99.90;;;;;;20867144;28;20044;-84
2022/07/04 23:29:00;;;;;;;1.00;0.40;;;16.00;99.90;;;;;;20886799;28;20821;-84
2022/07/04 23:39:01;;;;;;;2.25;0.63;;;15.90;99.90;;;;;;20858488;28;20037;-84
2022/07/04 23:49:02;;;;;;;1.88;0.77;;;15.70;99.90;;;;;;20851978;28;20055;-85
2022/07/04 23:59:03;;;;;;;2.50;0.88;;;15.60;99.90;;;;;;20873790;28;20755;-85
